Terminal Aerodrome Forecast
Issued by NWS

Home | Current Version | Previous Version | Text Only | Print | Product List | Glossary On
Versions: 1 2 3 4 5 6 7 8 9 10 11 12 13 14
172
FTUS43 KICT 111120
TAFSLN
TAF
KSLN 111120Z 1112/1212 VRB05KT P6SM OVC012
     FM111500 35010KT P6SM SCT015 OVC200
     FM111600 35015G24KT P6SM SCT100
     FM120000 35009KT P6SM SKC
     FM120600 VRB04KT P6SM SKC=

USA.gov is the U.S. government's official web portal to all federal, state and local government web resources and services.